sensor_id;sensor_type;location;lat;lon;timestamp;P1;durP1;ratioP1;P2;durP2;ratioP2
8058;SDS011;75058;42.668;23.396;2024-01-30T00:00:33;7.80;;;3.40;;
8058;SDS011;75058;42.668;23.396;2024-01-30T00:03:01;7.83;;;3.63;;
8058;SDS011;75058;42.668;23.396;2024-01-30T00:05:29;7.87;;;3.33;;
8058;SDS011;75058;42.668;23.396;2024-01-30T00:07:57;4.27;;;2.80;;
8058;SDS011;75058;42.668;23.396;2024-01-30T00:10:25;4.63;;;2.70;;
8058;SDS011;75058;42.668;23.396;2024-01-30T00:12:54;9.07;;;3.63;;
8058;SDS011;75058;42.668;23.396;2024-01-30T00:15:22;7.63;;;3.07;;
8058;SDS011;75058;42.668;23.396;2024-01-30T00:17:50;8.93;;;3.90;;
8058;SDS011;75058;42.668;23.396;2024-01-30T00:20:20;9.37;;;4.17;;
8058;SDS011;75058;42.668;23.396;2024-01-30T00:22:49;10.67;;;4.47;;
8058;SDS011;75058;42.668;23.396;2024-01-30T00:25:16;6.60;;;3.20;;
8058;SDS011;75058;42.668;23.396;2024-01-30T00:27:45;7.27;;;3.23;;
8058;SDS011;75058;42.668;23.396;2024-01-30T00:30:14;6.60;;;3.23;;
8058;SDS011;75058;42.668;23.396;2024-01-30T00:32:42;11.63;;;3.40;;
8058;SDS011;75058;42.668;23.396;2024-01-30T00:35:10;8.87;;;3.83;;
8058;SDS011;75058;42.668;23.396;2024-01-30T00:37:39;7.03;;;3.50;;
8058;SDS011;75058;42.668;23.396;2024-01-30T00:40:07;10.20;;;3.33;;
8058;SDS011;75058;42.668;23.396;2024-01-30T00:42:37;10.93;;;3.50;;
8058;SDS011;75058;42.668;23.396;2024-01-30T00:45:05;5.43;;;2.73;;
8058;SDS011;75058;42.668;23.396;2024-01-30T00:47:36;6.60;;;2.90;;
8058;SDS011;75058;42.668;23.396;2024-01-30T00:50:04;8.17;;;3.50;;
8058;SDS011;75058;42.668;23.396;2024-01-30T00:52:33;7.40;;;3.03;;
8058;SDS011;75058;42.668;23.396;2024-01-30T00:55:01;6.90;;;3.57;;
8058;SDS011;75058;42.668;23.396;2024-01-30T00:57:30;6.17;;;2.90;;
8058;SDS011;75058;42.668;23.396;2024-01-30T00:59:58;7.57;;;3.57;;
8058;SDS011;75058;42.668;23.396;2024-01-30T01:02:26;7.30;;;3.57;;
8058;SDS011;75058;42.668;23.396;2024-01-30T01:04:55;7.23;;;3.63;;
8058;SDS011;75058;42.668;23.396;2024-01-30T01:07:23;6.37;;;3.50;;
8058;SDS011;75058;42.668;23.396;2024-01-30T01:09:51;8.37;;;3.70;;
8058;SDS011;75058;42.668;23.396;2024-01-30T01:12:19;7.73;;;3.47;;
8058;SDS011;75058;42.668;23.396;2024-01-30T01:14:47;9.13;;;3.40;;
8058;SDS011;75058;42.668;23.396;2024-01-30T01:17:15;7.80;;;3.27;;
8058;SDS011;75058;42.668;23.396;2024-01-30T01:19:44;8.50;;;3.50;;
8058;SDS011;75058;42.668;23.396;2024-01-30T01:22:15;8.97;;;3.60;;
8058;SDS011;75058;42.668;23.396;2024-01-30T01:24:45;9.30;;;3.87;;
8058;SDS011;75058;42.668;23.396;2024-01-30T01:27:13;9.40;;;3.97;;
8058;SDS011;75058;42.668;23.396;2024-01-30T01:29:40;16.70;;;3.83;;
8058;SDS011;75058;42.668;23.396;2024-01-30T01:32:09;11.43;;;4.27;;
8058;SDS011;75058;42.668;23.396;2024-01-30T01:34:37;7.17;;;3.43;;
8058;SDS011;75058;42.668;23.396;2024-01-30T01:37:06;7.27;;;3.40;;
8058;SDS011;75058;42.668;23.396;2024-01-30T01:39:35;8.23;;;3.60;;
8058;SDS011;75058;42.668;23.396;2024-01-30T01:42:03;9.87;;;4.50;;
8058;SDS011;75058;42.668;23.396;2024-01-30T01:44:32;7.33;;;3.27;;
8058;SDS011;75058;42.668;23.396;2024-01-30T01:47:00;12.13;;;4.03;;
8058;SDS011;75058;42.668;23.396;2024-01-30T01:49:28;9.93;;;3.50;;
8058;SDS011;75058;42.668;23.396;2024-01-30T01:51:56;8.70;;;3.60;;
8058;SDS011;75058;42.668;23.396;2024-01-30T01:54:26;7.40;;;3.27;;
8058;SDS011;75058;42.668;23.396;2024-01-30T01:56:57;10.50;;;3.57;;
8058;SDS011;75058;42.668;23.396;2024-01-30T01:59:25;10.37;;;4.07;;
8058;SDS011;75058;42.668;23.396;2024-01-30T02:01:54;12.07;;;4.40;;
8058;SDS011;75058;42.668;23.396;2024-01-30T02:04:23;8.10;;;4.07;;
8058;SDS011;75058;42.668;23.396;2024-01-30T02:06:51;8.03;;;4.00;;
8058;SDS011;75058;42.668;23.396;2024-01-30T02:09:19;12.20;;;5.03;;
8058;SDS011;75058;42.668;23.396;2024-01-30T02:11:47;8.83;;;4.37;;
8058;SDS011;75058;42.668;23.396;2024-01-30T02:14:17;10.97;;;4.37;;
8058;SDS011;75058;42.668;23.396;2024-01-30T02:16:45;12.43;;;4.87;;
8058;SDS011;75058;42.668;23.396;2024-01-30T02:19:13;11.27;;;4.57;;
8058;SDS011;75058;42.668;23.396;2024-01-30T02:21:42;10.03;;;4.67;;
8058;SDS011;75058;42.668;23.396;2024-01-30T02:24:11;13.00;;;4.73;;
8058;SDS011;75058;42.668;23.396;2024-01-30T02:26:39;9.83;;;3.67;;
8058;SDS011;75058;42.668;23.396;2024-01-30T02:29:07;10.70;;;3.53;;
8058;SDS011;75058;42.668;23.396;2024-01-30T02:31:35;8.37;;;3.90;;
8058;SDS011;75058;42.668;23.396;2024-01-30T02:34:03;8.60;;;3.80;;
8058;SDS011;75058;42.668;23.396;2024-01-30T02:36:32;6.03;;;2.97;;
8058;SDS011;75058;42.668;23.396;2024-01-30T02:39:01;6.17;;;2.93;;
8058;SDS011;75058;42.668;23.396;2024-01-30T02:41:30;7.47;;;3.03;;
8058;SDS011;75058;42.668;23.396;2024-01-30T02:43:58;13.33;;;3.43;;
8058;SDS011;75058;42.668;23.396;2024-01-30T02:46:26;7.53;;;3.67;;
8058;SDS011;75058;42.668;23.396;2024-01-30T02:48:54;10.23;;;3.83;;
8058;SDS011;75058;42.668;23.396;2024-01-30T02:51:22;8.23;;;3.53;;
8058;SDS011;75058;42.668;23.396;2024-01-30T02:53:50;8.70;;;3.57;;
8058;SDS011;75058;42.668;23.396;2024-01-30T02:56:19;8.67;;;3.83;;
8058;SDS011;75058;42.668;23.396;2024-01-30T02:58:47;9.60;;;3.93;;
8058;SDS011;75058;42.668;23.396;2024-01-30T03:01:15;7.93;;;3.10;;
8058;SDS011;75058;42.668;23.396;2024-01-30T03:03:43;7.23;;;3.70;;
8058;SDS011;75058;42.668;23.396;2024-01-30T03:06:11;6.77;;;3.13;;
8058;SDS011;75058;42.668;23.396;2024-01-30T03:08:41;5.50;;;1.80;;
8058;SDS011;75058;42.668;23.396;2024-01-30T03:11:09;3.27;;;2.07;;
8058;SDS011;75058;42.668;23.396;2024-01-30T03:13:38;5.53;;;2.83;;
8058;SDS011;75058;42.668;23.396;2024-01-30T03:16:08;5.80;;;2.83;;
8058;SDS011;75058;42.668;23.396;2024-01-30T03:18:36;3.30;;;1.47;;
8058;SDS011;75058;42.668;23.396;2024-01-30T03:21:04;5.53;;;2.80;;
8058;SDS011;75058;42.668;23.396;2024-01-30T03:23:32;5.07;;;2.27;;
8058;SDS011;75058;42.668;23.396;2024-01-30T03:26:00;5.50;;;2.07;;
8058;SDS011;75058;42.668;23.396;2024-01-30T03:28:30;4.47;;;2.30;;
8058;SDS011;75058;42.668;23.396;2024-01-30T03:30:59;4.87;;;2.47;;
8058;SDS011;75058;42.668;23.396;2024-01-30T03:33:27;5.13;;;2.53;;
8058;SDS011;75058;42.668;23.396;2024-01-30T03:35:55;8.90;;;2.93;;
8058;SDS011;75058;42.668;23.396;2024-01-30T03:38:23;7.50;;;2.73;;
8058;SDS011;75058;42.668;23.396;2024-01-30T03:40:51;6.27;;;2.10;;
8058;SDS011;75058;42.668;23.396;2024-01-30T03:43:19;5.20;;;2.43;;
8058;SDS011;75058;42.668;23.396;2024-01-30T03:45:47;6.23;;;2.20;;
8058;SDS011;75058;42.668;23.396;2024-01-30T03:48:17;3.87;;;1.83;;
8058;SDS011;75058;42.668;23.396;2024-01-30T03:50:45;5.90;;;2.40;;
8058;SDS011;75058;42.668;23.396;2024-01-30T03:53:12;4.37;;;2.13;;
8058;SDS011;75058;42.668;23.396;2024-01-30T03:55:40;4.47;;;2.33;;
8058;SDS011;75058;42.668;23.396;2024-01-30T03:58:08;7.60;;;2.13;;
8058;SDS011;75058;42.668;23.396;2024-01-30T04:00:36;4.53;;;2.23;;
8058;SDS011;75058;42.668;23.396;2024-01-30T04:03:05;6.03;;;2.50;;
8058;SDS011;75058;42.668;23.396;2024-01-30T04:05:34;4.00;;;2.27;;
8058;SDS011;75058;42.668;23.396;2024-01-30T04:08:02;5.93;;;2.43;;
8058;SDS011;75058;42.668;23.396;2024-01-30T04:10:30;11.03;;;3.00;;
8058;SDS011;75058;42.668;23.396;2024-01-30T04:12:58;5.73;;;2.80;;
8058;SDS011;75058;42.668;23.396;2024-01-30T04:15:27;5.23;;;2.53;;
8058;SDS011;75058;42.668;23.396;2024-01-30T04:17:57;9.00;;;3.00;;
8058;SDS011;75058;42.668;23.396;2024-01-30T04:20:25;6.63;;;3.30;;
8058;SDS011;75058;42.668;23.396;2024-01-30T04:22:55;6.33;;;2.87;;
8058;SDS011;75058;42.668;23.396;2024-01-30T04:25:23;7.60;;;2.87;;
8058;SDS011;75058;42.668;23.396;2024-01-30T04:27:51;7.83;;;3.30;;
8058;SDS011;75058;42.668;23.396;2024-01-30T04:30:19;9.43;;;4.17;;
8058;SDS011;75058;42.668;23.396;2024-01-30T04:32:47;12.53;;;4.47;;
8058;SDS011;75058;42.668;23.396;2024-01-30T04:35:15;11.60;;;4.70;;
8058;SDS011;75058;42.668;23.396;2024-01-30T04:37:43;12.33;;;4.50;;
8058;SDS011;75058;42.668;23.396;2024-01-30T04:40:13;10.77;;;4.30;;
8058;SDS011;75058;42.668;23.396;2024-01-30T04:42:41;10.63;;;4.87;;
8058;SDS011;75058;42.668;23.396;2024-01-30T04:45:09;11.67;;;4.73;;
8058;SDS011;75058;42.668;23.396;2024-01-30T04:47:37;12.20;;;4.10;;
8058;SDS011;75058;42.668;23.396;2024-01-30T04:50:06;8.03;;;4.17;;
8058;SDS011;75058;42.668;23.396;2024-01-30T04:52:35;11.00;;;4.50;;
8058;SDS011;75058;42.668;23.396;2024-01-30T04:55:03;4.80;;;2.50;;
8058;SDS011;75058;42.668;23.396;2024-01-30T04:57:33;8.33;;;3.10;;
8058;SDS011;75058;42.668;23.396;2024-01-30T05:00:01;13.17;;;3.60;;
8058;SDS011;75058;42.668;23.396;2024-01-30T05:02:29;9.93;;;4.47;;
8058;SDS011;75058;42.668;23.396;2024-01-30T05:04:57;15.57;;;5.63;;
8058;SDS011;75058;42.668;23.396;2024-01-30T05:07:25;15.47;;;7.40;;
8058;SDS011;75058;42.668;23.396;2024-01-30T05:09:53;14.23;;;8.10;;
8058;SDS011;75058;42.668;23.396;2024-01-30T05:12:24;18.63;;;7.20;;
8058;SDS011;75058;42.668;23.396;2024-01-30T05:14:54;17.97;;;7.07;;
8058;SDS011;75058;42.668;23.396;2024-01-30T05:17:22;11.03;;;5.20;;
8058;SDS011;75058;42.668;23.396;2024-01-30T05:19:50;14.73;;;5.83;;
8058;SDS011;75058;42.668;23.396;2024-01-30T05:22:18;8.50;;;4.57;;
8058;SDS011;75058;42.668;23.396;2024-01-30T05:24:46;8.67;;;3.70;;
8058;SDS011;75058;42.668;23.396;2024-01-30T05:27:14;20.20;;;5.63;;
8058;SDS011;75058;42.668;23.396;2024-01-30T05:29:42;17.67;;;7.00;;
8058;SDS011;75058;42.668;23.396;2024-01-30T05:32:12;13.67;;;6.07;;
8058;SDS011;75058;42.668;23.396;2024-01-30T05:34:40;10.80;;;4.63;;
8058;SDS011;75058;42.668;23.396;2024-01-30T05:37:07;13.00;;;4.97;;
8058;SDS011;75058;42.668;23.396;2024-01-30T05:39:35;12.23;;;4.17;;
8058;SDS011;75058;42.668;23.396;2024-01-30T05:42:03;13.80;;;5.43;;
8058;SDS011;75058;42.668;23.396;2024-01-30T05:44:32;10.93;;;4.93;;
8058;SDS011;75058;42.668;23.396;2024-01-30T05:47:00;11.37;;;4.70;;
8058;SDS011;75058;42.668;23.396;2024-01-30T05:49:30;7.70;;;3.97;;
8058;SDS011;75058;42.668;23.396;2024-01-30T05:51:58;10.80;;;5.07;;
8058;SDS011;75058;42.668;23.396;2024-01-30T05:54:26;8.60;;;4.33;;
8058;SDS011;75058;42.668;23.396;2024-01-30T05:56:53;12.50;;;5.17;;
8058;SDS011;75058;42.668;23.396;2024-01-30T05:59:21;14.07;;;4.57;;
8058;SDS011;75058;42.668;23.396;2024-01-30T06:01:49;12.67;;;5.30;;
8058;SDS011;75058;42.668;23.396;2024-01-30T06:04:17;13.27;;;4.93;;
8058;SDS011;75058;42.668;23.396;2024-01-30T06:06:47;18.00;;;4.47;;
8058;SDS011;75058;42.668;23.396;2024-01-30T06:09:15;9.30;;;3.93;;
8058;SDS011;75058;42.668;23.396;2024-01-30T06:11:43;13.27;;;4.00;;
8058;SDS011;75058;42.668;23.396;2024-01-30T06:14:12;8.97;;;3.63;;
8058;SDS011;75058;42.668;23.396;2024-01-30T06:16:40;9.03;;;3.77;;
8058;SDS011;75058;42.668;23.396;2024-01-30T06:19:08;11.20;;;3.93;;
8058;SDS011;75058;42.668;23.396;2024-01-30T06:21:36;18.77;;;3.83;;
8058;SDS011;75058;42.668;23.396;2024-01-30T06:24:06;9.13;;;4.67;;
8058;SDS011;75058;42.668;23.396;2024-01-30T06:26:34;16.03;;;5.13;;
8058;SDS011;75058;42.668;23.396;2024-01-30T06:29:02;15.80;;;5.30;;
8058;SDS011;75058;42.668;23.396;2024-01-30T06:31:30;12.57;;;5.07;;
8058;SDS011;75058;42.668;23.396;2024-01-30T06:33:58;16.10;;;4.17;;
8058;SDS011;75058;42.668;23.396;2024-01-30T06:36:26;18.37;;;5.80;;
8058;SDS011;75058;42.668;23.396;2024-01-30T06:38:55;8.80;;;3.70;;
8058;SDS011;75058;42.668;23.396;2024-01-30T06:41:24;16.97;;;5.73;;
8058;SDS011;75058;42.668;23.396;2024-01-30T06:43:52;12.70;;;5.13;;
8058;SDS011;75058;42.668;23.396;2024-01-30T06:46:20;14.90;;;4.07;;
8058;SDS011;75058;42.668;23.396;2024-01-30T06:48:48;12.83;;;3.77;;
8058;SDS011;75058;42.668;23.396;2024-01-30T06:51:16;7.03;;;3.27;;
8058;SDS011;75058;42.668;23.396;2024-01-30T06:53:44;6.43;;;2.90;;
8058;SDS011;75058;42.668;23.396;2024-01-30T06:56:12;8.80;;;3.30;;
8058;SDS011;75058;42.668;23.396;2024-01-30T06:58:42;9.10;;;3.70;;
8058;SDS011;75058;42.668;23.396;2024-01-30T07:01:10;8.13;;;3.20;;
8058;SDS011;75058;42.668;23.396;2024-01-30T07:03:38;5.27;;;2.67;;
8058;SDS011;75058;42.668;23.396;2024-01-30T07:06:06;6.07;;;2.87;;
8058;SDS011;75058;42.668;23.396;2024-01-30T07:08:34;7.67;;;3.10;;
8058;SDS011;75058;42.668;23.396;2024-01-30T07:11:03;7.30;;;3.33;;
8058;SDS011;75058;42.668;23.396;2024-01-30T07:13:31;11.10;;;3.83;;
8058;SDS011;75058;42.668;23.396;2024-01-30T07:16:01;9.37;;;3.37;;
8058;SDS011;75058;42.668;23.396;2024-01-30T07:18:29;7.50;;;3.60;;
8058;SDS011;75058;42.668;23.396;2024-01-30T07:20:57;14.03;;;3.50;;
8058;SDS011;75058;42.668;23.396;2024-01-30T07:23:25;9.80;;;3.97;;
8058;SDS011;75058;42.668;23.396;2024-01-30T07:25:53;9.50;;;3.17;;
8058;SDS011;75058;42.668;23.396;2024-01-30T07:28:21;11.23;;;2.67;;
8058;SDS011;75058;42.668;23.396;2024-01-30T07:30:49;7.20;;;2.93;;
8058;SDS011;75058;42.668;23.396;2024-01-30T07:33:18;5.33;;;2.73;;
8058;SDS011;75058;42.668;23.396;2024-01-30T07:35:46;5.23;;;2.97;;
8058;SDS011;75058;42.668;23.396;2024-01-30T07:38:15;8.50;;;3.27;;
8058;SDS011;75058;42.668;23.396;2024-01-30T07:40:43;10.23;;;3.23;;
8058;SDS011;75058;42.668;23.396;2024-01-30T07:43:11;6.00;;;2.67;;
8058;SDS011;75058;42.668;23.396;2024-01-30T07:45:39;4.37;;;2.67;;
8058;SDS011;75058;42.668;23.396;2024-01-30T07:48:07;8.90;;;2.53;;
8058;SDS011;75058;42.668;23.396;2024-01-30T07:50:37;4.40;;;2.10;;
8058;SDS011;75058;42.668;23.396;2024-01-30T07:53:05;11.70;;;3.40;;
8058;SDS011;75058;42.668;23.396;2024-01-30T07:58:29;14.30;;;5.83;;
8058;SDS011;75058;42.668;23.396;2024-01-30T08:00:57;8.07;;;3.33;;
8058;SDS011;75058;42.668;23.396;2024-01-30T08:03:27;8.67;;;2.83;;
8058;SDS011;75058;42.668;23.396;2024-01-30T08:05:56;4.77;;;2.80;;
8058;SDS011;75058;42.668;23.396;2024-01-30T08:08:24;8.33;;;2.70;;
8058;SDS011;75058;42.668;23.396;2024-01-30T08:10:53;17.53;;;3.03;;
8058;SDS011;75058;42.668;23.396;2024-01-30T08:13:21;6.60;;;2.60;;
8058;SDS011;75058;42.668;23.396;2024-01-30T08:15:49;7.30;;;3.07;;
8058;SDS011;75058;42.668;23.396;2024-01-30T08:18:17;5.63;;;2.93;;
8058;SDS011;75058;42.668;23.396;2024-01-30T08:20:45;7.27;;;3.20;;
8058;SDS011;75058;42.668;23.396;2024-01-30T08:23:14;5.57;;;3.07;;
8058;SDS011;75058;42.668;23.396;2024-01-30T08:25:42;6.73;;;2.77;;
8058;SDS011;75058;42.668;23.396;2024-01-30T08:28:10;4.47;;;2.37;;
8058;SDS011;75058;42.668;23.396;2024-01-30T08:30:38;8.63;;;2.40;;
8058;SDS011;75058;42.668;23.396;2024-01-30T08:33:07;6.87;;;2.53;;
8058;SDS011;75058;42.668;23.396;2024-01-30T08:35:35;6.90;;;3.13;;
8058;SDS011;75058;42.668;23.396;2024-01-30T08:38:03;6.43;;;3.20;;
8058;SDS011;75058;42.668;23.396;2024-01-30T08:40:32;15.53;;;5.97;;
8058;SDS011;75058;42.668;23.396;2024-01-30T08:43:01;5.70;;;2.63;;
8058;SDS011;75058;42.668;23.396;2024-01-30T08:45:30;13.60;;;6.30;;
8058;SDS011;75058;42.668;23.396;2024-01-30T08:47:58;8.47;;;3.97;;
8058;SDS011;75058;42.668;23.396;2024-01-30T08:50:26;7.50;;;2.93;;
8058;SDS011;75058;42.668;23.396;2024-01-30T08:52:54;6.60;;;3.00;;
8058;SDS011;75058;42.668;23.396;2024-01-30T08:55:23;8.07;;;2.60;;
8058;SDS011;75058;42.668;23.396;2024-01-30T08:57:52;4.40;;;1.90;;
8058;SDS011;75058;42.668;23.396;2024-01-30T09:00:21;3.50;;;1.87;;
8058;SDS011;75058;42.668;23.396;2024-01-30T09:02:48;7.53;;;2.10;;
8058;SDS011;75058;42.668;23.396;2024-01-30T09:05:16;5.90;;;2.93;;
8058;SDS011;75058;42.668;23.396;2024-01-30T09:07:44;3.00;;;1.73;;
8058;SDS011;75058;42.668;23.396;2024-01-30T09:10:12;3.53;;;2.20;;
8058;SDS011;75058;42.668;23.396;2024-01-30T09:12:44;4.27;;;1.90;;
8058;SDS011;75058;42.668;23.396;2024-01-30T09:15:13;5.30;;;2.20;;
8058;SDS011;75058;42.668;23.396;2024-01-30T09:17:41;4.20;;;2.50;;
8058;SDS011;75058;42.668;23.396;2024-01-30T09:20:10;5.10;;;2.67;;
8058;SDS011;75058;42.668;23.396;2024-01-30T09:22:38;3.83;;;1.77;;
8058;SDS011;75058;42.668;23.396;2024-01-30T09:25:06;7.93;;;2.70;;
8058;SDS011;75058;42.668;23.396;2024-01-30T09:27:35;6.57;;;2.97;;
8058;SDS011;75058;42.668;23.396;2024-01-30T09:30:03;5.10;;;2.47;;
8058;SDS011;75058;42.668;23.396;2024-01-30T09:32:33;4.57;;;2.17;;
8058;SDS011;75058;42.668;23.396;2024-01-30T09:35:01;7.23;;;2.47;;
8058;SDS011;75058;42.668;23.396;2024-01-30T09:37:30;4.13;;;2.50;;
8058;SDS011;75058;42.668;23.396;2024-01-30T09:39:58;3.53;;;2.13;;
8058;SDS011;75058;42.668;23.396;2024-01-30T09:42:26;6.57;;;2.50;;
8058;SDS011;75058;42.668;23.396;2024-01-30T09:44:59;6.07;;;2.43;;
8058;SDS011;75058;42.668;23.396;2024-01-30T09:47:30;5.23;;;2.47;;
8058;SDS011;75058;42.668;23.396;2024-01-30T09:50:00;5.37;;;1.63;;
8058;SDS011;75058;42.668;23.396;2024-01-30T09:52:32;3.53;;;2.03;;
8058;SDS011;75058;42.668;23.396;2024-01-30T09:55:00;1.60;;;1.20;;
8058;SDS011;75058;42.668;23.396;2024-01-30T09:57:29;3.50;;;1.90;;
8058;SDS011;75058;42.668;23.396;2024-01-30T09:59:57;5.57;;;3.07;;
8058;SDS011;75058;42.668;23.396;2024-01-30T10:02:25;6.73;;;1.93;;
8058;SDS011;75058;42.668;23.396;2024-01-30T10:04:53;4.63;;;2.00;;
8058;SDS011;75058;42.668;23.396;2024-01-30T10:07:23;7.27;;;1.93;;
8058;SDS011;75058;42.668;23.396;2024-01-30T10:09:52;7.63;;;2.97;;
8058;SDS011;75058;42.668;23.396;2024-01-30T10:12:21;3.67;;;2.07;;
8058;SDS011;75058;42.668;23.396;2024-01-30T10:14:50;3.63;;;1.77;;
8058;SDS011;75058;42.668;23.396;2024-01-30T10:17:17;5.13;;;1.90;;
8058;SDS011;75058;42.668;23.396;2024-01-30T10:19:59;3.70;;;1.13;;
8058;SDS011;75058;42.668;23.396;2024-01-30T10:22:29;3.27;;;1.13;;
8058;SDS011;75058;42.668;23.396;2024-01-30T10:24:58;4.03;;;1.97;;
8058;SDS011;75058;42.668;23.396;2024-01-30T10:27:31;3.83;;;1.67;;
8058;SDS011;75058;42.668;23.396;2024-01-30T10:29:59;1.10;;;0.80;;
8058;SDS011;75058;42.668;23.396;2024-01-30T10:32:27;5.23;;;2.33;;
8058;SDS011;75058;42.668;23.396;2024-01-30T10:34:55;0.90;;;0.53;;
8058;SDS011;75058;42.668;23.396;2024-01-30T10:37:25;2.60;;;1.70;;
8058;SDS011;75058;42.668;23.396;2024-01-30T10:39:55;6.13;;;2.57;;
8058;SDS011;75058;42.668;23.396;2024-01-30T10:42:28;2.77;;;1.77;;
8058;SDS011;75058;42.668;23.396;2024-01-30T10:45:04;3.63;;;1.57;;
8058;SDS011;75058;42.668;23.396;2024-01-30T10:47:35;3.33;;;1.57;;
8058;SDS011;75058;42.668;23.396;2024-01-30T10:50:04;2.87;;;1.90;;
8058;SDS011;75058;42.668;23.396;2024-01-30T10:52:35;2.40;;;1.43;;
8058;SDS011;75058;42.668;23.396;2024-01-30T10:55:05;2.90;;;1.33;;
8058;SDS011;75058;42.668;23.396;2024-01-30T10:57:35;3.93;;;1.80;;
8058;SDS011;75058;42.668;23.396;2024-01-30T11:00:04;2.47;;;1.57;;
8058;SDS011;75058;42.668;23.396;2024-01-30T11:02:37;5.77;;;2.00;;
8058;SDS011;75058;42.668;23.396;2024-01-30T11:05:07;3.27;;;1.73;;
8058;SDS011;75058;42.668;23.396;2024-01-30T11:07:36;1.73;;;0.97;;
8058;SDS011;75058;42.668;23.396;2024-01-30T11:10:08;8.23;;;1.87;;
8058;SDS011;75058;42.668;23.396;2024-01-30T11:12:40;6.77;;;2.00;;
8058;SDS011;75058;42.668;23.396;2024-01-30T11:15:11;5.70;;;1.57;;
8058;SDS011;75058;42.668;23.396;2024-01-30T11:17:41;4.27;;;1.80;;
8058;SDS011;75058;42.668;23.396;2024-01-30T11:20:19;4.23;;;1.77;;
8058;SDS011;75058;42.668;23.396;2024-01-30T11:22:49;6.40;;;1.50;;
8058;SDS011;75058;42.668;23.396;2024-01-30T11:25:20;3.03;;;1.50;;
8058;SDS011;75058;42.668;23.396;2024-01-30T11:27:50;5.07;;;1.57;;
8058;SDS011;75058;42.668;23.396;2024-01-30T11:30:22;4.30;;;2.00;;
8058;SDS011;75058;42.668;23.396;2024-01-30T11:32:58;2.70;;;1.53;;
8058;SDS011;75058;42.668;23.396;2024-01-30T11:35:28;4.70;;;1.43;;
8058;SDS011;75058;42.668;23.396;2024-01-30T11:37:58;5.00;;;1.60;;
8058;SDS011;75058;42.668;23.396;2024-01-30T11:40:28;4.30;;;1.30;;
8058;SDS011;75058;42.668;23.396;2024-01-30T11:42:58;3.60;;;1.77;;
8058;SDS011;75058;42.668;23.396;2024-01-30T11:45:27;3.13;;;1.60;;
8058;SDS011;75058;42.668;23.396;2024-01-30T11:47:56;8.00;;;2.67;;
8058;SDS011;75058;42.668;23.396;2024-01-30T11:50:26;4.47;;;2.17;;
8058;SDS011;75058;42.668;23.396;2024-01-30T11:52:55;4.80;;;2.10;;
8058;SDS011;75058;42.668;23.396;2024-01-30T11:55:23;4.47;;;2.30;;
8058;SDS011;75058;42.668;23.396;2024-01-30T11:57:56;3.20;;;1.70;;
8058;SDS011;75058;42.668;23.396;2024-01-30T12:00:25;4.67;;;1.97;;
8058;SDS011;75058;42.668;23.396;2024-01-30T12:02:54;3.53;;;1.60;;
8058;SDS011;75058;42.668;23.396;2024-01-30T12:05:23;3.17;;;1.90;;
8058;SDS011;75058;42.668;23.396;2024-01-30T12:07:52;4.10;;;1.70;;
8058;SDS011;75058;42.668;23.396;2024-01-30T12:10:20;5.37;;;1.73;;
8058;SDS011;75058;42.668;23.396;2024-01-30T12:12:49;3.23;;;1.50;;
8058;SDS011;75058;42.668;23.396;2024-01-30T12:15:20;4.97;;;2.20;;
8058;SDS011;75058;42.668;23.396;2024-01-30T12:17:49;5.33;;;2.77;;
8058;SDS011;75058;42.668;23.396;2024-01-30T12:20:18;3.43;;;1.83;;
8058;SDS011;75058;42.668;23.396;2024-01-30T12:22:48;3.07;;;1.83;;
8058;SDS011;75058;42.668;23.396;2024-01-30T12:25:18;2.40;;;1.53;;
8058;SDS011;75058;42.668;23.396;2024-01-30T12:27:50;4.27;;;2.43;;
8058;SDS011;75058;42.668;23.396;2024-01-30T12:30:20;5.27;;;2.30;;
8058;SDS011;75058;42.668;23.396;2024-01-30T12:32:49;8.80;;;3.50;;
8058;SDS011;75058;42.668;23.396;2024-01-30T12:35:18;5.67;;;2.53;;
8058;SDS011;75058;42.668;23.396;2024-01-30T12:37:48;6.10;;;2.27;;
8058;SDS011;75058;42.668;23.396;2024-01-30T12:40:17;4.53;;;2.03;;
8058;SDS011;75058;42.668;23.396;2024-01-30T12:42:46;4.13;;;2.23;;
8058;SDS011;75058;42.668;23.396;2024-01-30T12:45:16;3.53;;;1.80;;
8058;SDS011;75058;42.668;23.396;2024-01-30T12:47:50;6.43;;;2.40;;
8058;SDS011;75058;42.668;23.396;2024-01-30T12:50:19;3.33;;;2.00;;
8058;SDS011;75058;42.668;23.396;2024-01-30T12:52:47;4.03;;;2.03;;
8058;SDS011;75058;42.668;23.396;2024-01-30T12:55:16;4.53;;;2.20;;
8058;SDS011;75058;42.668;23.396;2024-01-30T12:57:44;7.50;;;2.63;;
8058;SDS011;75058;42.668;23.396;2024-01-30T13:00:13;3.17;;;1.23;;
8058;SDS011;75058;42.668;23.396;2024-01-30T13:02:43;4.67;;;1.97;;
8058;SDS011;75058;42.668;23.396;2024-01-30T13:05:13;3.57;;;2.20;;
8058;SDS011;75058;42.668;23.396;2024-01-30T13:07:41;3.73;;;1.80;;
8058;SDS011;75058;42.668;23.396;2024-01-30T13:10:09;2.30;;;1.30;;
8058;SDS011;75058;42.668;23.396;2024-01-30T13:12:37;3.80;;;1.70;;
8058;SDS011;75058;42.668;23.396;2024-01-30T13:15:06;4.23;;;2.30;;
8058;SDS011;75058;42.668;23.396;2024-01-30T13:17:34;3.07;;;1.40;;
8058;SDS011;75058;42.668;23.396;2024-01-30T13:20:02;4.33;;;2.10;;
8058;SDS011;75058;42.668;23.396;2024-01-30T13:22:38;2.33;;;1.40;;
8058;SDS011;75058;42.668;23.396;2024-01-30T13:25:06;3.47;;;1.83;;
8058;SDS011;75058;42.668;23.396;2024-01-30T13:27:35;6.47;;;3.17;;
8058;SDS011;75058;42.668;23.396;2024-01-30T13:30:03;8.60;;;2.60;;
8058;SDS011;75058;42.668;23.396;2024-01-30T13:32:34;5.47;;;2.63;;
8058;SDS011;75058;42.668;23.396;2024-01-30T13:35:03;2.23;;;1.20;;
8058;SDS011;75058;42.668;23.396;2024-01-30T13:37:31;3.93;;;2.17;;
8058;SDS011;75058;42.668;23.396;2024-01-30T13:40:02;2.03;;;1.43;;
8058;SDS011;75058;42.668;23.396;2024-01-30T13:42:37;3.90;;;2.23;;
8058;SDS011;75058;42.668;23.396;2024-01-30T13:45:05;6.23;;;2.10;;
8058;SDS011;75058;42.668;23.396;2024-01-30T13:47:37;8.63;;;2.60;;
8058;SDS011;75058;42.668;23.396;2024-01-30T13:50:05;3.37;;;1.67;;
8058;SDS011;75058;42.668;23.396;2024-01-30T13:52:35;4.17;;;2.07;;
8058;SDS011;75058;42.668;23.396;2024-01-30T13:55:12;3.83;;;1.93;;
8058;SDS011;75058;42.668;23.396;2024-01-30T13:57:40;6.53;;;3.50;;
8058;SDS011;75058;42.668;23.396;2024-01-30T14:00:09;4.90;;;2.73;;
8058;SDS011;75058;42.668;23.396;2024-01-30T14:02:39;1.77;;;1.10;;
8058;SDS011;75058;42.668;23.396;2024-01-30T14:05:07;2.63;;;1.53;;
8058;SDS011;75058;42.668;23.396;2024-01-30T14:07:36;4.40;;;2.17;;
8058;SDS011;75058;42.668;23.396;2024-01-30T14:10:07;3.40;;;2.10;;
8058;SDS011;75058;42.668;23.396;2024-01-30T14:12:41;4.20;;;2.13;;
8058;SDS011;75058;42.668;23.396;2024-01-30T14:15:10;3.33;;;1.80;;
8058;SDS011;75058;42.668;23.396;2024-01-30T14:17:53;6.20;;;2.17;;
8058;SDS011;75058;42.668;23.396;2024-01-30T14:20:22;4.67;;;2.33;;
8058;SDS011;75058;42.668;23.396;2024-01-30T14:22:50;1.97;;;1.20;;
8058;SDS011;75058;42.668;23.396;2024-01-30T14:25:19;4.50;;;1.90;;
8058;SDS011;75058;42.668;23.396;2024-01-30T14:27:49;4.13;;;1.80;;
8058;SDS011;75058;42.668;23.396;2024-01-30T14:30:17;4.67;;;2.20;;
8058;SDS011;75058;42.668;23.396;2024-01-30T14:32:45;4.40;;;2.13;;
8058;SDS011;75058;42.668;23.396;2024-01-30T14:35:14;2.80;;;1.67;;
8058;SDS011;75058;42.668;23.396;2024-01-30T14:37:42;3.60;;;1.87;;
8058;SDS011;75058;42.668;23.396;2024-01-30T14:40:10;3.13;;;1.97;;
8058;SDS011;75058;42.668;23.396;2024-01-30T14:42:38;4.53;;;1.80;;
8058;SDS011;75058;42.668;23.396;2024-01-30T14:45:08;3.27;;;2.03;;
8058;SDS011;75058;42.668;23.396;2024-01-30T14:47:38;1.67;;;1.27;;
8058;SDS011;75058;42.668;23.396;2024-01-30T14:50:08;4.80;;;2.30;;
8058;SDS011;75058;42.668;23.396;2024-01-30T14:52:36;3.23;;;1.70;;
8058;SDS011;75058;42.668;23.396;2024-01-30T14:55:06;3.23;;;1.90;;
8058;SDS011;75058;42.668;23.396;2024-01-30T14:57:36;6.67;;;2.70;;